createdAt,value
2023-04-02T01:09:58.830Z,6.32
2023-04-02T01:12:53.393Z,6.33
2023-04-02T01:15:30.583Z,6.38
2023-04-02T01:18:53.608Z,6.41
2023-04-02T01:21:30.628Z,6.44
2023-04-02T01:24:08.409Z,6.45
2023-04-02T01:26:59.837Z,6.46
2023-04-02T01:29:39.787Z,6.47
2023-04-02T01:32:14.907Z,6.49
2023-04-02T01:34:46.956Z,6.48
2023-04-02T01:37:18.083Z,6.45
2023-04-02T01:39:56.795Z,6.43
2023-04-02T01:42:25.888Z,6.44
2023-04-02T01:45:01.621Z,6.44
2023-04-02T01:47:30.470Z,6.43
2023-04-02T01:50:05.013Z,6.43
2023-04-02T01:52:41.383Z,6.42
2023-04-02T01:55:13.338Z,6.42
2023-04-02T01:57:42.422Z,6.45
2023-04-02T02:00:15.226Z,6.47
2023-04-02T02:02:49.772Z,6.46
2023-04-02T02:05:21.101Z,6.46
2023-04-02T02:07:50.794Z,6.46
2023-04-02T02:10:24.227Z,6.45
2023-04-02T02:12:52.601Z,6.43
2023-04-02T02:15:23.933Z,6.41
2023-04-02T02:17:58.369Z,6.40
2023-04-02T02:20:27.630Z,6.40
2023-04-02T02:22:56.169Z,6.40
2023-04-02T02:25:27.474Z,6.40
2023-04-02T02:28:19.241Z,6.40
2023-04-02T02:30:59.332Z,6.38
2023-04-02T02:33:32.376Z,6.37
2023-04-02T02:36:03.699Z,6.40
2023-04-02T02:38:49.620Z,6.43
2023-04-02T02:41:44.195Z,6.48
2023-04-02T02:44:33.653Z,6.50
2023-04-02T02:47:04.675Z,6.50
2023-04-02T02:49:35.495Z,6.47
2023-04-02T02:52:19.968Z,6.48
2023-04-02T02:55:02.734Z,6.48
2023-04-02T02:57:41.790Z,6.47
2023-04-02T03:00:16.278Z,6.50
2023-04-02T03:02:45.955Z,6.51
2023-04-02T03:05:17.792Z,6.54
2023-04-02T03:07:49.742Z,6.56
2023-04-02T03:10:34.403Z,6.57
2023-04-02T03:13:25.056Z,6.57
2023-04-02T03:16:21.529Z,6.57
2023-04-02T03:19:13.373Z,6.56
2023-04-02T03:21:55.586Z,6.57
2023-04-02T03:24:23.864Z,6.57
2023-04-02T03:26:55.983Z,6.57
2023-04-02T03:29:29.821Z,6.59
2023-04-02T03:32:27.339Z,6.57
2023-04-02T03:35:10.903Z,6.57
2023-04-02T03:37:44.649Z,6.57
2023-04-02T03:40:19.235Z,6.58
2023-04-02T03:43:01.143Z,6.60
2023-04-02T03:45:34.507Z,6.62
2023-04-02T03:48:13.506Z,6.64
2023-04-02T03:50:57.088Z,6.65
2023-04-02T03:53:26.406Z,6.66
2023-04-02T03:55:54.501Z,6.67
2023-04-02T03:58:27.970Z,6.69
2023-04-02T04:01:12.535Z,6.72
2023-04-02T04:03:50.300Z,6.77
2023-04-02T04:06:29.861Z,6.80
2023-04-02T04:09:10.183Z,6.83
2023-04-02T04:11:49.299Z,6.86
2023-04-02T04:14:30.934Z,6.87
2023-04-02T04:17:04.698Z,6.90
2023-04-02T04:19:47.882Z,6.93
2023-04-02T04:22:32.900Z,6.97
2023-04-02T04:25:25.704Z,7.01
2023-04-02T04:28:12.751Z,7.04
2023-04-02T04:31:04.292Z,7.07
2023-04-02T04:33:43.756Z,7.10
2023-04-02T04:36:28.152Z,7.12
2023-04-02T04:39:07.636Z,7.13
2023-04-02T04:41:38.149Z,7.12
2023-04-02T04:44:35.900Z,7.11
2023-04-02T04:47:08.785Z,7.08
2023-04-02T04:50:12.960Z,7.07
2023-04-02T04:52:48.244Z,7.05
2023-04-02T04:55:39.484Z,7.05
2023-04-02T04:58:32.803Z,7.09
2023-04-02T05:01:06.116Z,7.11
2023-04-02T05:03:42.822Z,7.13
2023-04-02T05:06:37.445Z,7.18
2023-04-02T05:09:31.739Z,7.20
2023-04-02T05:12:38.137Z,7.25
2023-04-02T05:15:33.193Z,7.27
2023-04-02T05:18:52.696Z,7.28
2023-04-02T05:21:34.277Z,7.32
2023-04-02T05:24:29.266Z,7.36
2023-04-02T05:27:00.458Z,7.42
2023-04-02T05:29:31.842Z,7.51
2023-04-02T05:32:28.610Z,7.60
2023-04-02T05:34:57.517Z,7.70
2023-04-02T05:37:27.656Z,7.76
2023-04-02T05:39:57.510Z,7.81
2023-04-02T05:42:31.250Z,7.86
2023-04-02T05:45:09.154Z,7.91
2023-04-02T05:47:43.447Z,7.93
2023-04-02T05:50:27.283Z,7.93
2023-04-02T05:53:29.942Z,7.93
2023-04-02T05:56:16.646Z,7.95
2023-04-02T05:58:55.658Z,8.00
2023-04-02T06:01:45.832Z,8.05
2023-04-02T06:04:53.641Z,8.10
2023-04-02T06:07:24.478Z,8.15
2023-04-02T06:10:01.561Z,8.18
2023-04-02T06:12:52.996Z,8.20
2023-04-02T06:15:23.339Z,8.25
2023-04-02T06:18:20.536Z,8.30
2023-04-02T06:20:50.609Z,8.36
2023-04-02T06:23:24.324Z,8.37
2023-04-02T06:25:58.031Z,8.38
2023-04-02T06:28:47.185Z,8.38
2023-04-02T06:31:28.944Z,8.39
2023-04-02T06:33:57.920Z,8.41
2023-04-02T06:36:28.966Z,8.42
2023-04-02T06:39:08.386Z,8.45
2023-04-02T06:41:37.420Z,8.51
2023-04-02T06:44:28.326Z,8.57
2023-04-02T06:47:27.823Z,8.65
2023-04-02T06:50:06.745Z,8.73
2023-04-02T06:52:40.996Z,8.81
2023-04-02T06:55:22.094Z,8.91
2023-04-02T06:57:50.856Z,9.00
2023-04-02T07:00:38.338Z,9.09
2023-04-02T07:03:29.373Z,9.23
2023-04-02T07:06:01.082Z,9.32
2023-04-02T07:08:32.713Z,9.39
2023-04-02T07:11:01.502Z,9.44
2023-04-02T07:13:30.306Z,9.52
2023-04-02T07:15:59.034Z,9.67
2023-04-02T07:18:30.111Z,9.84
2023-04-02T07:20:59.439Z,10.07
2023-04-02T07:23:28.185Z,10.29
2023-04-02T07:25:57.309Z,10.48
2023-04-02T07:28:25.985Z,10.65
2023-04-02T07:30:55.132Z,10.79
2023-04-02T07:33:25.498Z,10.94
2023-04-02T07:35:55.115Z,11.04
2023-04-02T07:38:24.420Z,11.10
2023-04-02T07:40:53.122Z,11.13
2023-04-02T07:43:27.018Z,11.10
2023-04-02T07:45:55.959Z,11.02
2023-04-02T07:48:26.721Z,10.97
2023-04-02T07:50:55.228Z,10.90
2023-04-02T07:53:34.552Z,10.78
2023-04-02T07:56:10.866Z,10.68
2023-04-02T07:58:40.100Z,10.62
2023-04-02T08:01:28.992Z,10.58
2023-04-02T08:04:05.725Z,10.54
2023-04-02T08:06:35.435Z,10.55
2023-04-02T08:09:04.800Z,10.57
2023-04-02T08:11:32.917Z,10.57
2023-04-02T08:14:01.595Z,10.56
2023-04-02T08:16:53.396Z,10.53
2023-04-02T08:19:25.224Z,10.53
2023-04-02T08:21:56.799Z,10.50
2023-04-02T08:24:24.966Z,10.46
2023-04-02T08:26:54.098Z,10.44
2023-04-02T08:29:25.463Z,10.43
2023-04-02T08:31:53.846Z,10.41
2023-04-02T08:34:22.084Z,10.40
2023-04-02T08:36:51.536Z,10.39
2023-04-02T08:39:23.380Z,10.36
2023-04-02T08:42:04.831Z,10.33
2023-04-02T08:45:23.596Z,10.32
2023-04-02T08:47:56.746Z,10.36
2023-04-02T08:50:34.811Z,10.38
2023-04-02T08:53:06.149Z,10.42
2023-04-02T08:56:06.082Z,10.46
2023-04-02T08:58:41.808Z,10.54
2023-04-02T09:01:42.724Z,10.61
2023-04-02T09:04:16.223Z,10.69
2023-04-02T09:06:44.706Z,10.78
2023-04-02T09:09:13.280Z,10.89
2023-04-02T09:11:48.580Z,10.99
2023-04-02T09:14:21.426Z,11.11
2023-04-02T09:16:53.845Z,11.22
2023-04-02T09:19:24.470Z,11.32
2023-04-02T09:22:02.622Z,11.40
2023-04-02T09:24:31.467Z,11.50
2023-04-02T09:26:59.819Z,11.57
2023-04-02T09:29:43.472Z,11.63
2023-04-02T09:32:42.537Z,11.73
2023-04-02T09:35:26.889Z,11.89
2023-04-02T09:38:07.820Z,12.00
2023-04-02T09:40:47.696Z,12.06
2023-04-02T09:43:21.456Z,12.11
2023-04-02T09:46:13.853Z,12.13
2023-04-02T09:48:58.526Z,12.10
2023-04-02T09:51:35.179Z,12.09
2023-04-02T09:54:03.563Z,12.13
2023-04-02T09:56:35.647Z,12.16
2023-04-02T09:59:13.501Z,12.17
2023-04-02T10:01:48.123Z,12.16
2023-04-02T10:04:41.111Z,12.14
2023-04-02T10:07:30.821Z,12.12
2023-04-02T10:10:29.233Z,12.12
2023-04-02T10:13:07.396Z,12.10
2023-04-02T10:16:01.363Z,12.11
2023-04-02T10:18:51.985Z,12.15
2023-04-02T10:21:33.661Z,12.22
2023-04-02T10:24:03.157Z,12.27
2023-04-02T10:26:58.643Z,12.29
2023-04-02T10:29:48.987Z,12.34
2023-04-02T10:32:25.633Z,12.38
2023-04-02T10:35:09.298Z,12.42
2023-04-02T10:37:47.382Z,12.45
2023-04-02T10:40:27.607Z,12.46
2023-04-02T10:43:21.001Z,12.44
2023-04-02T10:46:04.537Z,12.42
2023-04-02T10:48:55.418Z,12.43
2023-04-02T10:51:42.417Z,12.44
2023-04-02T10:54:39.094Z,12.48
2023-04-02T10:57:36.619Z,12.53
2023-04-02T11:00:16.882Z,12.55
2023-04-02T11:02:52.522Z,12.58
2023-04-02T11:05:27.207Z,12.60
2023-04-02T11:07:57.977Z,12.56
2023-04-02T11:10:26.347Z,12.51
2023-04-02T11:13:09.559Z,12.46
2023-04-02T11:15:39.133Z,12.38
2023-04-02T11:18:07.419Z,12.31
2023-04-02T11:20:50.036Z,12.25
2023-04-02T11:23:23.025Z,12.20
2023-04-02T11:26:05.777Z,12.17
2023-04-02T11:28:34.477Z,12.15
2023-04-02T11:31:04.930Z,12.13
2023-04-02T11:33:45.482Z,12.14
2023-04-02T11:36:55.883Z,12.16
2023-04-02T11:39:48.350Z,12.17
2023-04-02T11:42:19.927Z,12.18
2023-04-02T11:44:48.419Z,12.16
2023-04-02T11:47:18.899Z,12.14
2023-04-02T11:50:02.309Z,12.16
2023-04-02T11:52:38.734Z,12.19
2023-04-02T11:55:27.349Z,12.22
2023-04-02T11:58:27.095Z,12.27
2023-04-02T12:13:51.647Z,12.41
2023-04-02T12:16:18.849Z,12.40
2023-04-02T12:18:53.489Z,12.41
2023-04-02T12:21:23.903Z,12.41
2023-04-02T12:23:52.233Z,12.42
2023-04-02T12:26:36.605Z,12.43
2023-04-02T12:29:38.482Z,12.45
2023-04-02T12:32:23.721Z,12.47
2023-04-02T12:34:51.940Z,12.52
2023-04-02T12:37:24.594Z,12.54
2023-04-02T12:40:06.589Z,12.58
2023-04-02T12:42:39.901Z,12.62
2023-04-02T12:45:08.402Z,12.68
2023-04-02T12:47:36.037Z,12.74
2023-04-02T12:50:08.738Z,12.80
2023-04-02T12:52:36.181Z,12.86
2023-04-02T12:55:07.122Z,12.87
2023-04-02T12:57:35.666Z,12.86
2023-04-02T13:00:22.179Z,12.85
2023-04-02T13:03:02.743Z,12.84
2023-04-02T13:05:52.369Z,12.78
2023-04-02T13:08:25.762Z,12.70
2023-04-02T13:10:58.756Z,12.62
2023-04-02T13:13:29.632Z,12.54
2023-04-02T13:16:04.165Z,12.44
2023-04-02T13:18:32.314Z,12.34
2023-04-02T13:21:00.670Z,12.28
2023-04-02T13:26:31.418Z,12.12
2023-04-02T13:29:15.696Z,11.94
2023-04-02T13:31:44.105Z,11.77
2023-04-02T13:34:12.678Z,11.61
2023-04-02T13:36:41.734Z,11.47
2023-04-02T13:39:11.199Z,11.30
2023-04-02T13:41:56.011Z,11.12
2023-04-02T13:44:28.201Z,10.99
2023-04-02T13:46:59.929Z,10.87
2023-04-02T13:49:28.312Z,10.74
2023-04-02T13:52:03.226Z,10.61
2023-04-02T13:54:44.496Z,10.48
2023-04-02T13:57:13.072Z,10.33
2023-04-02T13:59:41.971Z,10.17
2023-04-02T14:02:14.373Z,10.03
2023-04-02T14:04:50.145Z,9.90
2023-04-02T14:07:22.053Z,9.80
2023-04-02T14:10:10.714Z,9.72
2023-04-02T14:13:03.554Z,9.68
2023-04-02T14:16:10.175Z,9.64
2023-04-02T14:18:49.105Z,9.55
2023-04-02T14:21:31.497Z,9.47
2023-04-02T14:24:35.864Z,9.43
2023-04-02T14:27:25.745Z,9.40
2023-04-02T14:30:01.424Z,9.36
2023-04-02T14:32:59.342Z,9.30
2023-04-02T14:35:35.523Z,9.27
2023-04-02T14:38:21.554Z,9.23
2023-04-02T14:41:22.284Z,9.20
2023-04-02T14:43:57.287Z,9.17
2023-04-02T14:46:27.278Z,9.12
2023-04-02T14:49:21.351Z,9.10
2023-04-02T14:52:06.922Z,9.08
2023-04-02T14:54:50.328Z,9.08
2023-04-02T14:57:31.077Z,9.07
2023-04-02T15:00:20.811Z,9.07
2023-04-02T15:02:55.412Z,9.07
2023-04-02T15:06:01.883Z,9.08
2023-04-02T15:08:32.129Z,9.08
2023-04-02T15:11:21.658Z,9.07
2023-04-02T15:14:05.549Z,9.07
2023-04-02T15:16:36.681Z,9.07
2023-04-02T15:19:16.167Z,9.06
2023-04-02T15:22:08.866Z,9.05
2023-04-02T15:24:55.174Z,9.03
2023-04-02T15:27:27.251Z,9.01
2023-04-02T15:30:02.093Z,9.00
2023-04-02T15:32:34.454Z,8.98
2023-04-02T15:35:38.056Z,8.95
2023-04-02T15:38:38.848Z,8.91
2023-04-02T15:41:12.008Z,8.86
2023-04-02T15:43:56.782Z,8.82
2023-04-02T15:46:37.514Z,8.76
2023-04-02T15:49:38.236Z,8.73
2023-04-02T15:52:27.809Z,8.68
2023-04-02T15:54:57.110Z,8.64
2023-04-02T15:58:01.589Z,8.62
2023-04-02T16:00:31.377Z,8.59
2023-04-02T16:03:24.096Z,8.56
2023-04-02T16:06:17.390Z,8.51
2023-04-02T16:09:13.557Z,8.47
2023-04-02T16:11:42.166Z,8.46
2023-04-02T16:14:29.785Z,8.42
2023-04-02T16:17:17.843Z,8.42
2023-04-02T16:20:13.375Z,8.44
2023-04-02T16:22:53.289Z,8.46
2023-04-02T16:25:32.081Z,8.47
2023-04-02T16:28:19.423Z,8.49
2023-04-02T16:30:54.723Z,8.49
2023-04-02T16:33:35.710Z,8.48
2023-04-02T16:36:21.805Z,8.46
2023-04-02T16:39:13.511Z,8.44
2023-04-02T16:42:10.711Z,8.43
2023-04-02T16:44:50.563Z,8.40
2023-04-02T16:47:44.494Z,8.40
2023-04-02T16:50:40.972Z,8.38
2023-04-02T16:53:17.841Z,8.35
2023-04-02T16:56:09.912Z,8.32
2023-04-02T16:58:58.021Z,8.28
2023-04-02T17:01:29.168Z,8.24
2023-04-02T17:04:21.711Z,8.19
2023-04-02T17:06:50.495Z,8.16
2023-04-02T17:09:35.863Z,8.15
2023-04-02T17:12:05.406Z,8.13
2023-04-02T17:14:41.689Z,8.13
2023-04-02T17:17:11.840Z,8.15
2023-04-02T17:19:40.966Z,8.16
2023-04-02T17:22:15.993Z,8.20
2023-04-02T17:24:58.187Z,8.25
2023-04-02T17:27:38.306Z,8.30
2023-04-02T17:30:17.529Z,8.33
2023-04-02T17:32:47.898Z,8.35
2023-04-02T17:35:18.074Z,8.36
2023-04-02T17:37:55.548Z,8.36
2023-04-02T17:40:29.699Z,8.36
2023-04-02T17:43:04.984Z,8.37
2023-04-02T17:45:45.892Z,8.38
2023-04-02T17:48:19.110Z,8.39
2023-04-02T17:51:07.339Z,8.38
2023-04-02T17:53:58.989Z,8.36
2023-04-02T17:57:06.539Z,8.34
2023-04-02T17:59:46.434Z,8.31
2023-04-02T18:02:52.370Z,8.27
2023-04-02T18:05:28.452Z,8.25
2023-04-02T18:08:32.407Z,8.25
2023-04-02T18:11:10.221Z,8.29
2023-04-02T18:14:19.452Z,8.29
2023-04-02T18:17:09.664Z,8.31
2023-04-02T18:19:49.019Z,8.31
2023-04-02T18:22:47.201Z,8.30
2023-04-02T18:25:18.695Z,8.29
2023-04-02T18:28:21.122Z,8.29
2023-04-02T18:31:11.155Z,8.28
2023-04-02T18:34:00.039Z,8.28
2023-04-02T18:36:32.128Z,8.30
2023-04-02T18:39:08.137Z,8.32
2023-04-02T18:41:51.751Z,8.33
2023-04-02T18:44:20.073Z,8.35
2023-04-02T18:46:54.152Z,8.36
2023-04-02T18:49:39.468Z,8.37
2023-04-02T18:52:15.560Z,8.38
2023-04-02T18:54:57.192Z,8.38
2023-04-02T18:57:36.275Z,8.38
2023-04-02T19:00:05.943Z,8.38
2023-04-02T19:03:06.009Z,8.39
2023-04-02T19:05:44.979Z,8.40
2023-04-02T19:08:22.058Z,8.42
2023-04-02T19:11:28.716Z,8.40
2023-04-02T19:14:05.197Z,8.38
2023-04-02T19:17:13.072Z,8.37
2023-04-02T19:19:48.130Z,8.34
2023-04-02T19:22:49.203Z,8.32
2023-04-02T19:25:56.236Z,8.32
2023-04-02T19:28:34.669Z,8.29
2023-04-02T19:31:31.050Z,8.25
2023-04-02T19:34:11.848Z,8.23
2023-04-02T19:36:47.862Z,8.21
2023-04-02T19:39:35.155Z,8.21
2023-04-02T19:42:16.777Z,8.21
2023-04-02T19:44:49.441Z,8.23
2023-04-02T19:47:18.186Z,8.26
2023-04-02T19:49:47.130Z,8.28
2023-04-02T19:52:15.557Z,8.31
2023-04-02T19:54:43.803Z,8.35
2023-04-02T19:57:15.612Z,8.37
2023-04-02T19:59:44.050Z,8.39
2023-04-02T20:02:12.481Z,8.41
2023-04-02T20:04:43.969Z,8.44
2023-04-02T20:07:12.112Z,8.46
2023-04-02T20:09:40.525Z,8.50
2023-04-02T20:12:09.841Z,8.52
2023-04-02T20:14:39.084Z,8.53
2023-04-02T20:17:07.472Z,8.56
2023-04-02T20:19:35.784Z,8.57
2023-04-02T20:22:04.341Z,8.58
2023-04-02T20:24:32.893Z,8.58
2023-04-02T20:27:07.148Z,8.56
2023-04-02T20:29:35.647Z,8.56
2023-04-02T20:32:04.046Z,8.56
2023-04-02T20:34:32.642Z,8.55
2023-04-02T20:37:01.888Z,8.55
2023-04-02T20:39:30.458Z,8.56
2023-04-02T20:42:02.724Z,8.57
2023-04-02T20:44:32.078Z,8.58
2023-04-02T20:47:00.871Z,8.58
2023-04-02T20:49:29.243Z,8.57
2023-04-02T20:51:59.434Z,8.55
2023-04-02T20:54:27.667Z,8.53
2023-04-02T20:56:59.343Z,8.52
2023-04-02T20:59:27.557Z,8.52
2023-04-02T21:01:56.161Z,8.53
2023-04-02T21:04:24.735Z,8.53
2023-04-02T21:06:57.142Z,8.54
2023-04-02T21:09:25.299Z,8.53
2023-04-02T21:11:54.013Z,8.52
2023-04-02T21:14:22.142Z,8.50
2023-04-02T21:16:50.483Z,8.50
2023-04-02T21:19:18.836Z,8.50
2023-04-02T21:21:47.191Z,8.51
2023-04-02T21:24:15.724Z,8.54
2023-04-02T21:26:46.549Z,8.58
2023-04-02T21:29:14.809Z,8.60
2023-04-02T21:31:43.185Z,8.60
2023-04-02T21:34:15.732Z,8.59
2023-04-02T21:36:46.269Z,8.58
2023-04-02T21:39:20.550Z,8.57
2023-04-02T21:41:53.332Z,8.55
2023-04-02T21:44:22.525Z,8.53
2023-04-02T21:46:53.566Z,8.50
2023-04-02T21:49:23.449Z,8.50
2023-04-02T21:51:51.873Z,8.50
2023-04-02T21:54:21.448Z,8.48
2023-04-02T21:56:49.742Z,8.46
2023-04-02T21:59:18.144Z,8.46
2023-04-02T22:01:48.739Z,8.44
2023-04-02T22:04:24.900Z,8.40
2023-04-02T22:06:53.445Z,8.36
2023-04-02T22:09:23.044Z,8.30
2023-04-02T22:11:54.602Z,8.24
2023-04-02T22:14:23.231Z,8.20
2023-04-02T22:16:52.343Z,8.18
2023-04-02T22:19:21.605Z,8.18
2023-04-02T22:21:50.701Z,8.17
2023-04-02T22:24:27.261Z,8.16
2023-04-02T22:26:57.540Z,8.14
2023-04-02T22:29:25.981Z,8.11
2023-04-02T22:31:54.295Z,8.08
2023-04-02T22:34:22.634Z,8.06
2023-04-02T22:36:50.827Z,8.05
2023-04-02T22:39:21.880Z,8.02
2023-04-02T22:41:50.054Z,7.98
2023-04-02T22:44:18.383Z,7.95
2023-04-02T22:46:46.966Z,7.93
2023-04-02T22:49:19.563Z,7.96
2023-04-02T22:51:48.405Z,7.97
2023-04-02T22:54:16.695Z,7.95
2023-04-02T22:56:44.983Z,7.95
2023-04-02T22:59:13.435Z,7.94
2023-04-02T23:01:44.175Z,7.93
2023-04-02T23:04:12.883Z,7.92
2023-04-02T23:06:41.695Z,7.90
2023-04-02T23:09:10.573Z,7.87
2023-04-02T23:11:41.842Z,7.87
2023-04-02T23:14:10.438Z,7.86
2023-04-02T23:16:38.801Z,7.85
2023-04-02T23:19:07.708Z,7.84
2023-04-02T23:21:35.990Z,7.84
2023-04-02T23:24:04.356Z,7.86
2023-04-02T23:26:33.054Z,7.89
2023-04-02T23:29:02.011Z,7.91
2023-04-02T23:31:30.772Z,7.94
2023-04-02T23:33:59.240Z,7.96
2023-04-02T23:36:35.050Z,7.98
2023-04-02T23:39:08.036Z,7.97
2023-04-02T23:41:38.313Z,7.95
2023-04-02T23:44:06.775Z,7.93
2023-04-02T23:46:35.524Z,7.91
2023-04-02T23:49:04.192Z,7.88
2023-04-02T23:51:33.258Z,7.88
2023-04-02T23:54:01.821Z,7.91
2023-04-02T23:56:31.810Z,7.92
2023-04-02T23:58:59.961Z,7.92
